Time;durP1;ratioP1;P1;durP2;ratioP2;P2;SDS_P1;SDS_P2;PMS_P1;PMS_P2;Temp;Humidity;BMP_temperature;BMP_pressure;BME280_temperature;BME280_humidity;BME280_pressure;Samples;Min_cycle;Max_cycle;Signal;HPM_P1;HPM_P2
2022/06/28 00:01:45;;;;;;;11.75;5.15;;;;;;;18.61;85.71;100829.91;1905225;75;21045;-61
2022/06/28 00:04:14;;;;;;;19.07;8.10;;;;;;;18.62;85.66;100833.42;1905200;75;21013;-60
2022/06/28 00:06:43;;;;;;;26.62;9.25;;;;;;;18.60;85.62;100837.52;1905206;74;21158;-60
2022/06/28 00:09:12;;;;;;;26.02;11.18;;;;;;;18.58;85.59;100841.27;1905067;75;21114;-60
2022/06/28 00:11:42;;;;;;;21.93;10.30;;;;;;;18.57;85.52;100840.89;1905002;75;21518;-61
2022/06/28 00:17:00;;;;;;;29.72;11.25;;;;;;;18.52;85.45;100846.56;1905162;75;21503;-60
2022/06/28 00:19:29;;;;;;;26.48;10.53;;;;;;;18.50;85.42;100841.33;1905190;75;21483;-60
2022/06/28 00:21:58;;;;;;;20.80;8.23;;;;;;;18.50;85.41;100836.49;1905208;74;21060;-61
2022/06/28 00:24:27;;;;;;;14.75;7.22;;;;;;;18.50;85.38;100838.67;1904977;75;21477;-61
2022/06/28 00:26:55;;;;;;;22.15;8.33;;;;;;;18.49;85.34;100842.28;1905039;75;21049;-61
2022/06/28 00:29:24;;;;;;;22.20;10.23;;;;;;;18.48;85.31;100833.92;1894541;75;21096;-60
2022/06/28 00:31:53;;;;;;;24.25;10.23;;;;;;;18.48;85.36;100840.59;1890139;75;21139;-60
2022/06/28 00:34:22;;;;;;;17.87;6.53;;;;;;;18.48;85.34;100844.59;1890113;76;21068;-60
2022/06/28 00:36:50;;;;;;;19.85;7.85;;;;;;;18.47;85.32;100842.88;1889992;76;21041;-61
2022/06/28 00:39:19;;;;;;;11.43;4.83;;;;;;;18.47;85.29;100838.03;1890085;76;21516;-60
2022/06/28 00:41:48;;;;;;;24.30;7.10;;;;;;;18.48;85.32;100833.05;1890224;75;21100;-60
2022/06/28 00:44:17;;;;;;;9.15;5.15;;;;;;;18.47;85.29;100829.54;1890103;76;21037;-61
2022/06/28 00:46:46;;;;;;;21.90;6.75;;;;;;;18.47;85.30;100822.03;1890304;76;21512;-60
2022/06/28 00:49:15;;;;;;;19.23;6.50;;;;;;;18.46;85.29;100825.64;1890006;76;21017;-61
2022/06/28 00:51:44;;;;;;;22.27;9.43;;;;;;;18.47;85.37;100824.70;1890114;75;21100;-61
2022/06/28 00:54:13;;;;;;;32.60;14.23;;;;;;;18.46;85.30;100823.86;1890053;76;21025;-60
2022/06/28 00:56:42;;;;;;;21.40;10.03;;;;;;;18.47;85.33;100830.03;1890118;76;21103;-60
2022/06/28 00:59:11;;;;;;;32.10;11.57;;;;;;;18.46;85.31;100825.64;1890138;76;21120;-62
2022/06/28 01:01:40;;;;;;;11.28;5.78;;;;;;;18.46;85.31;100826.98;1889979;75;21053;-65
2022/06/28 01:04:09;;;;;;;14.70;5.60;;;;;;;18.45;85.30;100824.80;1890150;76;21128;-63
2022/06/28 01:06:39;;;;;;;6.22;3.37;;;;;;;18.45;85.30;100823.47;1890097;76;21081;-62
2022/06/28 01:09:09;;;;;;;6.35;2.87;;;;;;;18.44;85.31;100821.78;1890201;76;21025;-63
2022/06/28 01:11:37;;;;;;;7.22;2.58;;;;;;;18.44;85.33;100828.91;1890252;76;21590;-63
2022/06/28 01:14:08;;;;;;;4.58;2.25;;;;;;;18.43;85.34;100825.39;1890098;75;21044;-63
2022/06/28 01:16:56;;;;;;;2.52;1.32;;;;;;;18.43;85.33;100830.73;1860244;77;21586;-64
2022/06/28 01:19:27;;;;;;;11.60;2.10;;;;;;;18.42;85.34;100834.34;1858318;77;21080;-63
2022/06/28 01:21:58;;;;;;;8.78;2.75;;;;;;;18.42;85.38;100836.16;1870710;76;21064;-63
2022/06/28 01:24:27;;;;;;;5.67;2.60;;;;;;;18.42;85.44;100829.01;1890074;76;21041;-63
2022/06/28 01:27:08;;;;;;;3.15;1.70;;;;;;;18.41;85.46;100824.66;1889750;75;21154;-63
2022/06/28 01:29:38;;;;;;;8.98;2.08;;;;;;;18.42;85.46;100833.50;1890057;75;21134;-63
2022/06/28 01:32:15;;;;;;;5.62;2.10;;;;;;;18.41;85.48;100825.98;1874886;75;21080;-63
2022/06/28 01:34:44;;;;;;;6.95;2.40;;;;;;;18.41;85.49;100833.98;1890054;76;21069;-63
2022/06/28 01:37:15;;;;;;;5.22;2.02;;;;;;;18.42;85.45;100838.34;1889927;76;21121;-63
2022/06/28 01:39:44;;;;;;;7.22;2.40;;;;;;;18.42;85.45;100837.00;1890076;75;21049;-63
2022/06/28 01:42:14;;;;;;;6.85;2.30;;;;;;;18.42;85.45;100840.16;1890065;76;21584;-63
2022/06/28 01:44:45;;;;;;;3.85;2.17;;;;;;;18.41;85.45;100842.47;1890088;76;21069;-63
2022/06/28 01:47:18;;;;;;;4.23;1.90;;;;;;;18.41;85.45;100847.31;1888789;76;21637;-63
2022/06/28 01:49:55;;;;;;;4.10;2.47;;;;;;;18.41;85.47;100842.47;1874717;75;21072;-62
2022/06/28 01:52:26;;;;;;;5.62;2.15;;;;;;;18.41;85.54;100843.80;1890059;75;21072;-63
2022/06/28 01:54:55;;;;;;;7.45;2.25;;;;;;;18.41;85.62;100845.98;1890057;76;21041;-62
2022/06/28 01:57:25;;;;;;;7.75;2.25;;;;;;;18.42;85.61;100845.49;1890165;76;21037;-63
2022/06/28 01:59:58;;;;;;;6.17;2.60;;;;;;;18.42;85.61;100846.34;1889936;75;21060;-65
2022/06/28 02:02:37;;;;;;;4.90;2.17;;;;;;;18.42;85.57;100852.16;1879688;76;21080;-64
2022/06/28 02:05:24;;;;;;;5.22;2.27;;;;;;;18.42;85.53;100849.49;1890039;76;21151;-64
2022/06/28 02:07:55;;;;;;;5.17;2.00;;;;;;;18.42;85.50;100841.00;1890022;76;21487;-62
2022/06/28 02:10:25;;;;;;;3.77;2.27;;;;;;;18.43;85.49;100845.39;1890044;76;21053;-63
2022/06/28 02:12:54;;;;;;;6.28;2.42;;;;;;;18.44;85.52;100847.56;1889960;76;21152;-62
2022/06/28 02:15:23;;;;;;;6.80;2.17;;;;;;;18.43;85.52;100845.88;1890003;76;21515;-61
2022/06/28 02:17:52;;;;;;;4.58;2.42;;;;;;;18.43;85.51;100849.39;1890212;76;21569;-62
2022/06/28 02:20:22;;;;;;;5.50;2.10;;;;;;;18.44;85.52;100847.11;1890025;76;21045;-62
2022/06/28 02:22:52;;;;;;;5.03;2.55;;;;;;;18.43;85.53;100844.06;1889989;75;21515;-62
2022/06/28 02:25:20;;;;;;;6.22;3.08;;;;;;;18.44;85.53;100840.45;1889967;75;21817;-62
2022/06/28 02:27:49;;;;;;;11.28;4.75;;;;;;;18.44;85.51;100829.78;1890097;75;21096;-62
2022/06/28 02:30:21;;;;;;;25.57;8.10;;;;;;;18.45;85.49;100822.63;1889955;75;21154;-62
2022/06/28 02:32:50;;;;;;;18.32;8.15;;;;;;;18.46;85.48;100826.52;1890023;76;21065;-61
2022/06/28 02:40:52;;;;;;;6.92;2.15;;;;;;;18.49;85.51;100819.62;1889983;76;21026;-62
2022/06/28 02:43:21;;;;;;;4.37;2.20;;;;;;;18.51;85.50;100815.02;1889964;76;21057;-62
2022/06/28 02:45:49;;;;;;;5.17;2.27;;;;;;;18.54;85.48;100810.47;1889980;75;21115;-63
2022/06/28 02:48:19;;;;;;;7.65;2.90;;;;;;;18.57;85.44;100809.73;1889881;75;21131;-63
2022/06/28 02:50:48;;;;;;;6.95;2.55;;;;;;;18.61;85.35;100806.37;1890189;76;21546;-63
2022/06/28 02:53:17;;;;;;;4.03;2.15;;;;;;;18.64;85.26;100806.16;1890130;75;21009;-63
2022/06/28 02:55:45;;;;;;;6.40;3.25;;;;;;;18.65;85.12;100806.05;1890055;76;21017;-63
2022/06/28 02:58:14;;;;;;;13.95;3.92;;;;;;;18.69;84.99;100804.02;1890032;75;21005;-62
2022/06/28 03:00:42;;;;;;;13.58;7.03;;;;;;;18.72;84.89;100806.47;1889974;75;21033;-63
2022/06/28 03:03:11;;;;;;;20.20;7.37;;;;;;;18.73;84.85;100809.49;1890011;76;21172;-62
2022/06/28 03:05:40;;;;;;;17.92;8.30;;;;;;;18.76;84.86;100810.62;1889984;76;21033;-62
2022/06/28 03:08:09;;;;;;;12.73;7.00;;;;;;;18.79;84.85;100810.86;1890030;76;21061;-62
2022/06/28 03:10:38;;;;;;;19.20;7.53;;;;;;;18.82;84.84;100809.35;1890135;75;21511;-62
2022/06/28 03:13:07;;;;;;;14.25;6.83;;;;;;;18.86;84.87;100813.49;1888244;74;21053;-65
2022/06/28 03:15:36;;;;;;;12.15;4.80;;;;;;;18.88;84.89;100813.73;1874990;74;21050;-63
2022/06/28 03:18:05;;;;;;;8.78;4.17;;;;;;;18.90;84.88;100815.84;1885049;76;21082;-64
2022/06/28 03:20:35;;;;;;;9.88;5.53;;;;;;;18.93;84.88;100813.42;1917079;74;21022;-65
2022/06/28 03:23:04;;;;;;;10.93;4.05;;;;;;;18.93;84.84;100811.24;1932717;74;21066;-65
2022/06/28 03:25:33;;;;;;;10.20;5.28;;;;;;;18.95;84.83;100822.66;1932829;74;21218;-66
2022/06/28 03:28:03;;;;;;;20.60;8.88;;;;;;;18.94;84.82;100820.93;1932749;74;21026;-65
2022/06/28 03:30:33;;;;;;;18.30;6.45;;;;;;;18.94;84.81;100822.27;1935737;74;21061;-65
2022/06/28 03:33:02;;;;;;;22.60;7.95;;;;;;;18.95;84.77;100813.31;1914147;74;21057;-65
2022/06/28 03:35:32;;;;;;;19.10;6.87;;;;;;;18.97;84.70;100819.39;1906347;74;21076;-64
2022/06/28 03:38:01;;;;;;;19.55;6.45;;;;;;;18.98;84.69;100823.73;1906128;75;21126;-63
2022/06/28 03:40:35;;;;;;;12.13;4.33;;;;;;;18.98;84.65;100817.06;1910223;74;21143;-63
2022/06/28 03:43:03;;;;;;;12.35;3.22;;;;;;;18.97;84.61;100823.38;1906197;75;21127;-64
2022/06/28 03:45:32;;;;;;;10.32;3.17;;;;;;;18.97;84.57;100826.05;1906173;75;21077;-64
2022/06/28 03:48:09;;;;;;;8.65;2.90;;;;;;;18.99;84.52;100818.78;1893334;75;21140;-63
2022/06/28 03:50:56;;;;;;;8.48;2.85;;;;;;;19.03;84.46;100819.80;1906044;75;21119;-59
2022/06/28 03:53:26;;;;;;;5.65;2.40;;;;;;;19.14;84.45;100816.31;1907332;74;21077;-61
2022/06/28 03:55:59;;;;;;;;;;;;;;;19.27;84.43;100821.14;1909191;74;21637;-61
2022/06/28 03:58:28;;;;;;;3.50;2.10;;;;;;;19.38;84.37;100814.13;1906225;75;20425;-61
2022/06/28 04:00:56;;;;;;;6.78;2.05;;;;;;;19.46;84.06;100811.25;1906162;74;21065;-65
2022/06/28 04:03:25;;;;;;;7.22;2.05;;;;;;;19.54;83.88;100815.17;1906372;75;21671;-63
2022/06/28 04:05:54;;;;;;;3.25;1.87;;;;;;;19.64;83.77;100815.70;1906224;75;21037;-63
2022/06/28 04:08:23;;;;;;;3.50;2.20;;;;;;;19.79;83.73;100812.83;1906376;74;21057;-63
2022/06/28 04:11:13;;;;;;;6.00;2.70;;;;;;;19.86;83.59;100812.73;1905818;74;21146;-63
2022/06/28 04:13:24;;;;;;;5.45;2.50;;;;;;;19.88;83.35;100816.63;1910085;74;21046;-63
2022/06/28 04:15:53;;;;;;;2.70;1.62;;;;;;;19.86;83.12;100811.39;1906146;75;21081;-63
2022/06/28 04:18:23;;;;;;;4.40;1.82;;;;;;;19.84;82.91;100819.52;1906367;74;21076;-63
2022/06/28 04:21:00;;;;;;;6.70;2.25;;;;;;;19.84;82.68;100813.34;1893702;75;21112;-63
2022/06/28 04:23:29;;;;;;;7.15;2.10;;;;;;;19.90;82.54;100812.88;1906389;75;21049;-63
2022/06/28 04:25:58;;;;;;;6.08;1.95;;;;;;;20.02;82.38;100816.41;1906403;75;21077;-65
2022/06/28 04:28:35;;;;;;;4.42;1.95;;;;;;;20.11;82.23;100810.84;1906105;74;21147;-62
2022/06/28 04:31:09;;;;;;;8.43;2.17;;;;;;;20.19;82.17;100817.77;1900987;74;21470;-63
2022/06/28 04:33:37;;;;;;;5.92;2.08;;;;;;;20.26;82.13;100816.31;1884507;76;21113;-61
2022/06/28 04:36:07;;;;;;;6.12;2.45;;;;;;;20.33;82.14;100808.67;1884466;76;21050;-64
2022/06/28 04:38:37;;;;;;;8.60;3.98;;;;;;;20.41;82.02;100807.07;1884305;76;21071;-61
2022/06/28 04:41:07;;;;;;;14.60;5.30;;;;;;;20.86;82.47;100814.25;1884712;74;21140;-60
2022/06/28 04:43:37;;;;;;;13.38;5.50;;;;;;;21.29;82.57;100809.87;1884839;75;21070;-62
2022/06/28 04:46:06;;;;;;;14.63;5.30;;;;;;;21.65;82.43;100798.39;1884505;76;21130;-61
2022/06/28 04:48:36;;;;;;;10.15;4.37;;;;;;;22.10;82.26;100799.46;1884434;76;21140;-62
2022/06/28 04:51:25;;;;;;;9.20;4.33;;;;;;;22.57;81.89;100806.52;1900611;75;21267;-62
2022/06/28 04:53:54;;;;;;;6.85;2.52;;;;;;;23.01;81.08;100816.45;1900650;75;21598;-62
2022/06/28 04:56:24;;;;;;;6.25;3.10;;;;;;;23.36;80.47;100809.73;1900696;75;21077;-62
2022/06/28 04:58:53;;;;;;;4.90;2.17;;;;;;;23.69;79.25;100806.25;1900792;75;21493;-62
2022/06/28 05:01:22;;;;;;;4.62;2.33;;;;;;;23.73;77.25;100809.00;1900611;75;21038;-64
2022/06/28 05:03:50;;;;;;;5.28;2.70;;;;;;;23.71;76.81;100806.45;1900889;75;21118;-62
2022/06/28 05:06:33;;;;;;;6.20;2.77;;;;;;;23.73;76.23;100796.90;1853630;75;21045;-63
2022/06/28 05:09:02;;;;;;;5.15;2.25;;;;;;;23.75;75.45;100792.22;1900907;75;21441;-63
2022/06/28 05:11:31;;;;;;;5.03;2.10;;;;;;;23.91;74.44;100800.23;1900679;75;21571;-63
2022/06/28 05:14:07;;;;;;;4.03;1.20;;;;;;;24.10;73.78;100790.75;1874479;75;21073;-63
2022/06/28 05:16:36;;;;;;;3.40;1.70;;;;;;;24.33;73.60;100803.35;1900836;75;21112;-62
2022/06/28 05:19:06;;;;;;;5.60;1.50;;;;;;;24.27;71.53;100799.41;1900846;75;21077;-62
2022/06/28 05:21:36;;;;;;;4.87;1.60;;;;;;;24.25;71.14;100798.72;1900437;75;21139;-62
2022/06/28 05:24:06;;;;;;;5.00;1.70;;;;;;;24.18;70.18;100802.98;1900838;75;21088;-62
2022/06/28 05:26:42;;;;;;;7.12;1.72;;;;;;;23.90;69.57;100802.05;1899296;75;21125;-61
2022/06/28 05:29:14;;;;;;;2.98;1.40;;;;;;;23.65;69.32;100808.88;1899498;75;21549;-60
2022/06/28 05:31:43;;;;;;;4.25;1.50;;;;;;;23.42;68.72;100811.84;1900728;75;21484;-60
2022/06/28 05:34:13;;;;;;;5.85;1.47;;;;;;;23.22;68.17;100815.52;1900590;75;21160;-60
2022/06/28 05:36:43;;;;;;;4.45;1.70;;;;;;;23.21;68.49;100812.49;1900959;75;21165;-61
2022/06/28 05:39:13;;;;;;;7.87;1.70;;;;;;;23.27;68.78;100811.92;1900741;75;21054;-62
2022/06/28 05:44:31;;;;;;;8.63;3.25;;;;;;;24.08;69.11;100808.38;1868020;76;21066;-62
2022/06/28 05:46:59;;;;;;;8.23;3.35;;;;;;;24.36;68.31;100815.66;1904170;75;21077;-61
2022/06/28 05:49:28;;;;;;;5.95;1.87;;;;;;;24.35;67.99;100811.28;1867869;77;21110;-62
2022/06/28 05:51:57;;;;;;;5.95;2.30;;;;;;;24.77;67.80;100808.98;1868182;77;21516;-61
2022/06/28 05:54:26;;;;;;;2.87;1.80;;;;;;;25.21;67.48;100801.50;1868126;77;21164;-61
2022/06/28 05:56:55;;;;;;;5.17;4.00;;;;;;;25.80;67.20;100792.41;1868141;77;21133;-62
2022/06/28 05:59:26;;;;;;;1.77;1.30;;;;;;;26.13;66.23;100796.19;1867948;76;21199;-61
2022/06/28 06:01:55;;;;;;;4.08;1.80;;;;;;;26.41;65.92;100794.64;1868025;76;21594;-62
2022/06/28 06:04:26;;;;;;;3.80;1.32;;;;;;;26.53;64.54;100790.65;1867945;77;21543;-61
2022/06/28 06:06:55;;;;;;;2.40;1.50;;;;;;;26.64;62.92;100792.25;1867820;76;21104;-57
2022/06/28 06:09:24;;;;;;;2.70;1.72;;;;;;;26.56;61.54;100797.59;1867961;77;21489;-57
2022/06/28 06:11:53;;;;;;;3.08;1.75;;;;;;;26.57;61.31;100792.01;1868106;77;21049;-57
2022/06/28 06:14:21;;;;;;;7.05;1.70;;;;;;;26.40;61.55;100795.66;1867919;77;21046;-62
2022/06/28 06:16:53;;;;;;;5.92;1.87;;;;;;;26.52;61.97;100797.56;1867969;77;21113;-61
2022/06/28 06:19:22;;;;;;;5.53;2.83;;;;;;;26.29;61.05;100802.70;1868169;77;21054;-60
2022/06/28 06:21:51;;;;;;;5.85;1.72;;;;;;;26.12;61.07;100803.96;1868083;76;21144;-60
2022/06/28 06:24:20;;;;;;;9.05;1.40;;;;;;;26.39;60.81;100795.31;1868047;76;21078;-60
2022/06/28 06:27:22;;;;;;;2.65;1.30;;;;;;;26.65;60.95;100806.10;1867391;76;21070;-61
2022/06/28 06:32:44;;;;;;;4.35;1.62;;;;;;;27.38;59.18;100801.88;1806232;78;21565;-60
2022/06/28 06:35:15;;;;;;;5.90;1.77;;;;;;;27.62;58.58;100803.73;1765770;79;21114;-60
2022/06/28 06:37:44;;;;;;;3.33;1.80;;;;;;;27.82;58.14;100802.03;1837292;78;21074;-61
2022/06/28 06:40:13;;;;;;;7.72;2.33;;;;;;;28.24;57.81;100803.66;1806142;79;21181;-65
2022/06/28 06:42:41;;;;;;;16.40;3.47;;;;;;;28.33;55.97;100806.68;1837296;78;21039;-60
2022/06/28 06:45:12;;;;;;;5.58;2.40;;;;;;;28.41;56.15;100803.92;1804772;79;21172;-62
2022/06/28 06:47:41;;;;;;;6.08;2.22;;;;;;;28.42;56.46;100799.34;1837362;78;21093;-62
2022/06/28 06:50:11;;;;;;;5.40;1.62;;;;;;;28.67;55.94;100809.09;1805868;79;21879;-62
2022/06/28 06:52:39;;;;;;;6.72;1.62;;;;;;;28.91;55.17;100811.86;1837334;78;21518;-60
2022/06/28 06:55:10;;;;;;;7.37;1.77;;;;;;;29.00;54.85;100808.08;1805944;79;21110;-62
2022/06/28 07:00:28;;;;;;;4.78;1.55;;;;;;;28.99;53.90;100799.08;1804886;78;21068;-63
2022/06/28 07:02:57;;;;;;;6.22;1.60;;;;;;;29.03;53.19;100790.94;1854522;77;21075;-62
2022/06/28 07:05:26;;;;;;;3.58;1.47;;;;;;;29.06;52.66;100792.44;1854553;77;21027;-62
2022/06/28 07:07:54;;;;;;;7.95;1.67;;;;;;;29.58;53.08;100786.28;1805048;78;21053;-64
2022/06/28 07:10:25;;;;;;;5.62;1.45;;;;;;;29.61;51.25;100788.63;1822482;78;21082;-63
2022/06/28 07:12:57;;;;;;;3.37;1.52;;;;;;;29.71;51.32;100789.72;1822568;79;21518;-63
2022/06/28 07:15:27;;;;;;;2.55;2.00;;;;;;;29.55;51.72;100793.45;1821700;78;21094;-64
2022/06/28 07:17:56;;;;;;;4.97;1.85;;;;;;;29.99;52.24;100786.41;1822744;79;21047;-63
2022/06/28 07:20:25;;;;;;;7.12;1.50;;;;;;;30.45;51.41;100790.84;1822519;79;21102;-63
2022/06/28 07:22:53;;;;;;;4.30;1.65;;;;;;;30.75;50.70;100795.20;1822678;79;21137;-62
2022/06/28 07:25:22;;;;;;;3.47;1.30;;;;;;;31.05;50.66;100797.84;1822499;79;21122;-62
2022/06/28 07:27:52;;;;;;;5.70;1.85;;;;;;;31.07;49.15;100788.98;1822618;79;21051;-61
2022/06/28 07:30:21;;;;;;;6.70;2.10;;;;;;;30.65;48.18;100787.85;1822752;79;21059;-61
2022/06/28 07:32:50;;;;;;;4.67;1.55;;;;;;;30.85;48.69;100783.17;1822851;79;21084;-61
2022/06/28 07:35:18;;;;;;;4.62;1.80;;;;;;;31.00;48.82;100786.70;1822677;79;21118;-63
2022/06/28 07:37:47;;;;;;;5.08;1.62;;;;;;;31.16;48.41;100790.53;1822604;78;21487;-65
2022/06/28 07:40:17;;;;;;;5.62;1.85;;;;;;;31.03;46.96;100792.30;1822767;79;21091;-64
2022/06/28 07:42:53;;;;;;;9.43;1.87;;;;;;;30.94;47.27;100795.64;1821974;78;21124;-63
2022/06/28 07:45:26;;;;;;;3.12;1.50;;;;;;;31.03;47.33;100790.94;1807114;78;21088;-63
2022/06/28 07:47:56;;;;;;;2.80;1.57;;;;;;;31.15;47.10;100792.08;1822393;78;21115;-63
2022/06/28 07:53:13;;;;;;;3.60;1.60;;;;;;;30.60;46.17;100787.08;1822687;78;21111;-63
2022/06/28 07:55:50;;;;;;;3.85;1.57;;;;;;;30.34;46.99;100784.88;1821127;78;21521;-63
2022/06/28 07:58:23;;;;;;;6.30;1.98;;;;;;;30.17;46.81;100784.70;1822474;78;21120;-60
2022/06/28 08:00:52;;;;;;;4.42;1.80;;;;;;;30.16;47.20;100782.50;1816930;78;21141;-60
2022/06/28 08:03:21;;;;;;;8.25;2.30;;;;;;;30.28;46.91;100791.53;1816655;79;21596;-61
2022/06/28 08:05:50;;;;;;;6.92;2.47;;;;;;;30.45;46.86;100786.77;1816751;79;21093;-62
2022/06/28 08:08:21;;;;;;;5.35;2.47;;;;;;;30.48;46.29;100789.11;1816794;79;21086;-64
2022/06/28 08:10:49;;;;;;;6.83;2.40;;;;;;;30.81;46.51;100781.88;1816640;79;21110;-64
2022/06/28 08:13:18;;;;;;;7.47;1.77;;;;;;;31.00;46.26;100791.31;1816538;79;21089;-66
2022/06/28 08:15:48;;;;;;;11.30;1.98;;;;;;;31.34;46.32;100788.72;1816768;79;21095;-64
2022/06/28 08:18:17;;;;;;;3.33;1.65;;;;;;;31.82;46.05;100788.09;1816745;79;21031;-64
2022/06/28 08:20:46;;;;;;;8.10;1.60;;;;;;;32.32;45.99;100788.00;1816815;79;21513;-64
2022/06/28 08:23:15;;;;;;;3.55;1.72;;;;;;;32.05;45.49;100782.92;1816682;79;21062;-64
2022/06/28 08:25:46;;;;;;;2.70;1.25;;;;;;;32.23;45.54;100791.94;1816393;78;21061;-63
2022/06/28 08:28:16;;;;;;;3.42;1.30;;;;;;;32.59;45.14;100788.13;1816813;79;21101;-63
2022/06/28 08:30:45;;;;;;;3.22;1.50;;;;;;;32.68;44.73;100793.22;1817957;77;21669;-63
2022/06/28 08:33:14;;;;;;;3.80;1.40;;;;;;;32.95;44.66;100787.83;1812000;78;21058;-62
2022/06/28 08:35:43;;;;;;;7.83;1.67;;;;;;;33.21;44.69;100795.24;1815176;79;21157;-61
2022/06/28 08:38:12;;;;;;;5.65;1.45;;;;;;;33.52;44.36;100799.80;1841354;78;21140;-62
2022/06/28 08:40:42;;;;;;;12.78;1.50;;;;;;;33.91;43.90;100793.48;1847032;78;21121;-62
2022/06/28 08:43:11;;;;;;;2.95;1.50;;;;;;;33.85;41.73;100787.51;1847149;78;21490;-66
2022/06/28 08:45:40;;;;;;;5.17;1.35;;;;;;;33.85;41.73;100787.51;1847202;77;21520;-65
2022/06/28 08:48:17;;;;;;;5.22;1.52;;;;;;;33.75;42.28;100797.48;1847377;78;21131;-66
2022/06/28 08:50:49;;;;;;;7.85;1.40;;;;;;;33.80;42.63;100794.13;1849980;77;21117;-66
2022/06/28 08:53:20;;;;;;;1.98;1.20;;;;;;;34.03;42.21;100797.75;1853512;77;21056;-66
2022/06/28 08:55:50;;;;;;;4.10;1.43;;;;;;;34.03;41.82;100790.41;1853694;77;21066;-62
2022/06/28 08:58:20;;;;;;;4.33;1.20;;;;;;;34.06;41.64;100790.50;1853456;77;21059;-63
2022/06/28 09:00:51;;;;;;;2.47;1.62;;;;;;;34.05;41.42;100784.74;1853342;76;21176;-64
2022/06/28 09:03:20;;;;;;;2.12;1.32;;;;;;;33.92;41.12;100792.94;1853417;77;21502;-65
2022/06/28 09:05:48;;;;;;;2.62;1.10;;;;;;;33.99;40.90;100773.28;1853456;77;21064;-63
2022/06/28 09:08:17;;;;;;;8.88;2.17;;;;;;;34.04;40.20;100787.14;1853384;77;21666;-64
2022/06/28 09:10:46;;;;;;;6.62;1.60;;;;;;;33.75;40.45;100778.36;1853394;77;21146;-64
2022/06/28 09:13:16;;;;;;;3.65;1.60;;;;;;;33.83;39.27;100756.84;1853331;77;21072;-64
2022/06/28 09:15:50;;;;;;;7.40;1.32;;;;;;;33.83;39.27;100756.84;1853397;77;21121;-66
2022/06/28 09:18:21;;;;;;;4.97;1.50;;;;;;;33.55;39.43;100774.78;1853445;77;21537;-64
2022/06/28 09:20:52;;;;;;;3.08;1.30;;;;;;;33.42;39.51;100769.66;1853441;77;21064;-64
2022/06/28 09:23:27;;;;;;;3.70;1.67;;;;;;;32.74;39.72;100766.16;1853277;76;21032;-64
2022/06/28 09:25:58;;;;;;;4.55;1.27;;;;;;;32.74;39.72;100766.16;1853561;76;21028;-64
2022/06/28 09:28:32;;;;;;;6.90;1.98;;;;;;;32.79;39.64;100766.39;1853555;77;21133;-65
2022/06/28 09:31:15;;;;;;;2.25;1.20;;;;;;;32.63;39.98;100767.62;1853502;77;21130;-64
2022/06/28 09:33:46;;;;;;;3.05;1.20;;;;;;;32.62;40.39;100773.58;1852703;77;21056;-64
2022/06/28 09:36:17;;;;;;;2.33;1.20;;;;;;;32.50;40.12;100769.75;1853590;77;21443;-64
2022/06/28 09:38:46;;;;;;;11.65;1.47;;;;;;;32.35;40.39;100770.39;1853308;77;21157;-64
2022/06/28 09:41:27;;;;;;;2.30;0.93;;;;;;;32.04;40.70;100767.61;1853474;77;21039;-64
2022/06/28 09:44:07;;;;;;;7.15;1.70;;;;;;;31.62;41.33;100768.05;1852954;76;21617;-65
2022/06/28 09:46:36;;;;;;;4.15;1.12;;;;;;;31.21;41.74;100771.42;1853368;77;21063;-65
2022/06/28 09:49:09;;;;;;;3.87;1.05;;;;;;;31.01;41.86;100768.02;1853614;77;21137;-62
2022/06/28 09:51:40;;;;;;;3.67;1.40;;;;;;;30.61;42.03;100768.89;1853465;77;21055;-63
2022/06/28 09:54:10;;;;;;;2.10;1.17;;;;;;;30.19;42.60;100771.28;1853490;77;21064;-63
2022/06/28 09:56:42;;;;;;;4.35;1.30;;;;;;;30.02;43.08;100770.59;1853547;77;21482;-64
2022/06/28 09:59:12;;;;;;;2.95;1.02;;;;;;;29.99;43.43;100771.48;1853512;77;21455;-62
2022/06/28 10:01:41;;;;;;;3.58;1.20;;;;;;;29.95;43.45;100768.82;1853333;76;21084;-64
2022/06/28 10:04:14;;;;;;;4.50;1.10;;;;;;;29.98;43.82;100768.46;1879887;76;21135;-64
2022/06/28 10:06:43;;;;;;;8.63;1.17;;;;;;;30.02;43.80;100766.52;1885231;76;21060;-63
2022/06/28 10:09:12;;;;;;;2.85;0.98;;;;;;;30.06;43.84;100762.92;1885007;76;21122;-63
2022/06/28 10:17:23;;;;;;;3.35;1.20;;;;;;;29.80;44.52;100768.81;1884867;76;21107;-63
2022/06/28 10:19:52;;;;;;;8.48;1.20;;;;;;;29.77;44.54;100766.46;1883813;76;21493;-62
2022/06/28 10:22:21;;;;;;;2.60;1.00;;;;;;;29.72;44.22;100770.23;1884825;76;21507;-62
2022/06/28 10:24:52;;;;;;;6.37;1.05;;;;;;;29.79;44.24;100763.08;1884885;76;21138;-61
2022/06/28 10:27:22;;;;;;;14.98;2.30;;;;;;;29.62;43.84;100759.63;1884794;76;21130;-62
2022/06/28 10:32:55;;;;;;;6.25;1.12;;;;;;;29.76;44.27;100756.66;1821204;79;21030;-57
2022/06/28 10:35:35;;;;;;;3.20;1.12;;;;;;;29.84;44.28;100756.55;1819319;79;21137;-60
2022/06/28 10:38:13;;;;;;;5.45;1.00;;;;;;;29.78;44.04;100749.16;1790808;80;21108;-64
2022/06/28 10:40:50;;;;;;;3.42;1.55;;;;;;;29.80;43.83;100749.81;1791785;79;21175;-63
2022/06/28 10:43:30;;;;;;;1.27;1.12;;;;;;;30.02;43.90;100746.69;1791745;79;21131;-65
2022/06/28 10:46:09;;;;;;;4.92;1.32;;;;;;;30.25;44.13;100742.52;1780075;79;21064;-68
2022/06/28 10:48:53;;;;;;;2.92;1.22;;;;;;;30.46;43.77;100745.84;1806705;79;21026;-62
2022/06/28 10:51:23;;;;;;;3.65;1.00;;;;;;;30.42;43.47;100745.06;1821282;79;21059;-63
2022/06/28 10:54:07;;;;;;;6.10;1.02;;;;;;;30.25;43.79;100746.59;1821257;79;21501;-66
2022/06/28 10:59:37;;;;;;;6.97;1.30;;;;;;;30.17;43.19;100739.37;1865850;76;21044;-64
2022/06/28 11:02:09;;;;;;;4.62;0.90;;;;;;;30.24;43.21;100743.54;1865603;77;21129;-61
2022/06/28 11:04:37;;;;;;;2.52;1.00;;;;;;;30.25;42.99;100742.52;1865840;77;20996;-61
2022/06/28 11:07:09;;;;;;;4.00;1.52;;;;;;;30.25;42.58;100739.81;1866033;77;21462;-61
2022/06/28 11:09:41;;;;;;;2.50;1.17;;;;;;;30.16;42.12;100741.77;1865764;77;21036;-62
2022/06/28 11:12:18;;;;;;;3.67;0.90;;;;;;;30.13;41.94;100734.52;1865866;76;21020;-63
2022/06/28 11:15:01;;;;;;;6.15;1.35;;;;;;;30.21;41.97;100731.69;1865734;77;21558;-61
2022/06/28 11:17:33;;;;;;;5.45;1.17;;;;;;;30.38;42.76;100725.58;1866001;77;21066;-62
2022/06/28 11:20:09;;;;;;;3.10;0.75;;;;;;;30.36;42.93;100735.28;1865995;77;21521;-62
2022/06/28 11:22:47;;;;;;;5.05;1.50;;;;;;;30.34;42.80;100726.97;1865891;77;21028;-62
2022/06/28 11:27:19;;;;;;;4.12;1.50;;;;;;;30.38;43.06;100733.20;1865465;77;21071;-61
2022/06/28 11:28:02;;;;;;;1.20;0.93;;;;;;;30.30;43.27;100729.19;1860751;77;21089;-60
2022/06/28 11:30:34;;;;;;;2.30;1.07;;;;;;;30.22;43.51;100727.43;1865871;77;21051;-60
2022/06/28 11:33:02;;;;;;;6.62;1.50;;;;;;;30.18;43.52;100725.30;1866168;77;21020;-60
2022/06/28 11:35:32;;;;;;;9.00;1.17;;;;;;;30.13;43.55;100727.73;1865831;77;21036;-62
2022/06/28 11:38:02;;;;;;;1.77;0.80;;;;;;;29.91;43.60;100724.92;1865988;77;21485;-61
2022/06/28 11:40:43;;;;;;;5.42;1.35;;;;;;;29.77;43.98;100723.91;1866038;77;21028;-61
2022/06/28 11:43:25;;;;;;;6.12;1.80;;;;;;;29.62;44.03;100718.93;1865980;77;21026;-60
2022/06/28 11:45:50;;;;;;;6.85;1.10;;;;;;;29.67;44.63;100719.22;1864278;77;21588;-61
2022/06/28 11:48:24;;;;;;;7.97;1.02;;;;;;;29.68;44.65;100718.20;1865977;77;21063;-59
2022/06/28 11:50:55;;;;;;;6.00;1.50;;;;;;;29.59;44.38;100718.80;1862951;76;21032;-60
2022/06/28 11:53:25;;;;;;;5.67;1.30;;;;;;;29.62;44.48;100719.80;1865997;77;21051;-62
2022/06/28 11:55:59;;;;;;;2.42;1.30;;;;;;;29.67;44.34;100716.51;1866053;77;21458;-59
2022/06/28 11:58:38;;;;;;;3.30;1.00;;;;;;;29.68;44.57;100721.41;1866250;75;21607;-60
2022/06/28 12:01:15;;;;;;;2.67;0.80;;;;;;;29.56;44.13;100719.16;1869259;77;21501;-60
2022/06/28 12:03:47;;;;;;;3.40;0.80;;;;;;;29.48;44.40;100725.20;1871710;75;21518;-65
2022/06/28 12:06:24;;;;;;;2.58;1.00;;;;;;;29.40;44.55;100730.16;1895861;75;21431;-64
2022/06/28 12:09:03;;;;;;;3.33;1.05;;;;;;;29.37;44.38;100721.89;1867650;77;21025;-65
2022/06/28 12:11:52;;;;;;;6.17;1.20;;;;;;;29.31;44.13;100729.91;1806660;79;21061;-68
2022/06/28 12:14:22;;;;;;;1.42;0.90;;;;;;;29.15;44.42;100730.39;1806677;79;21060;-69